sensor_id;sensor_type;location;lat;lon;timestamp;P1;durP1;ratioP1;P2;durP2;ratioP2
54428;SDS011;40337;52.978;6.310;2023-07-28T00:00:31;19.27;;;13.80;;
54428;SDS011;40337;52.978;6.310;2023-07-28T00:02:57;19.73;;;12.93;;
54428;SDS011;40337;52.978;6.310;2023-07-28T00:05:22;21.00;;;13.30;;
54428;SDS011;40337;52.978;6.310;2023-07-28T00:07:48;21.17;;;15.02;;
54428;SDS011;40337;52.978;6.310;2023-07-28T00:10:13;21.38;;;14.73;;
54428;SDS011;40337;52.978;6.310;2023-07-28T00:12:39;21.58;;;15.93;;
54428;SDS011;40337;52.978;6.310;2023-07-28T00:15:05;25.95;;;16.70;;
54428;SDS011;40337;52.978;6.310;2023-07-28T00:17:30;23.08;;;17.83;;
54428;SDS011;40337;52.978;6.310;2023-07-28T00:19:56;25.17;;;17.88;;
54428;SDS011;40337;52.978;6.310;2023-07-28T00:22:21;26.05;;;19.42;;
54428;SDS011;40337;52.978;6.310;2023-07-28T00:24:47;23.80;;;18.27;;
54428;SDS011;40337;52.978;6.310;2023-07-28T00:27:12;27.85;;;19.88;;
54428;SDS011;40337;52.978;6.310;2023-07-28T00:29:40;27.73;;;18.02;;
54428;SDS011;40337;52.978;6.310;2023-07-28T00:32:06;26.65;;;18.70;;
54428;SDS011;40337;52.978;6.310;2023-07-28T00:34:32;26.23;;;18.75;;
54428;SDS011;40337;52.978;6.310;2023-07-28T00:36:57;22.35;;;17.38;;
54428;SDS011;40337;52.978;6.310;2023-07-28T00:39:23;28.08;;;17.85;;
54428;SDS011;40337;52.978;6.310;2023-07-28T00:41:48;23.38;;;17.55;;
54428;SDS011;40337;52.978;6.310;2023-07-28T00:44:14;24.10;;;17.65;;
54428;SDS011;40337;52.978;6.310;2023-07-28T00:46:41;29.00;;;18.73;;
54428;SDS011;40337;52.978;6.310;2023-07-28T00:49:07;27.55;;;18.45;;
54428;SDS011;40337;52.978;6.310;2023-07-28T00:51:33;27.80;;;19.15;;
54428;SDS011;40337;52.978;6.310;2023-07-28T00:54:01;26.27;;;18.00;;
54428;SDS011;40337;52.978;6.310;2023-07-28T00:56:27;25.27;;;18.17;;
54428;SDS011;40337;52.978;6.310;2023-07-28T00:58:53;24.77;;;17.70;;
54428;SDS011;40337;52.978;6.310;2023-07-28T01:01:19;22.90;;;17.48;;
54428;SDS011;40337;52.978;6.310;2023-07-28T01:03:44;22.80;;;17.25;;
54428;SDS011;40337;52.978;6.310;2023-07-28T01:06:15;22.88;;;16.63;;
54428;SDS011;40337;52.978;6.310;2023-07-28T01:08:54;24.08;;;16.85;;
54428;SDS011;40337;52.978;6.310;2023-07-28T01:11:23;25.80;;;17.50;;
54428;SDS011;40337;52.978;6.310;2023-07-28T01:13:49;23.33;;;15.98;;
54428;SDS011;40337;52.978;6.310;2023-07-28T01:16:14;22.98;;;15.70;;
54428;SDS011;40337;52.978;6.310;2023-07-28T01:18:40;23.90;;;16.05;;
54428;SDS011;40337;52.978;6.310;2023-07-28T01:21:06;28.23;;;15.80;;
54428;SDS011;40337;52.978;6.310;2023-07-28T01:26:08;25.15;;;15.52;;
54428;SDS011;40337;52.978;6.310;2023-07-28T01:28:35;22.15;;;14.68;;
54428;SDS011;40337;52.978;6.310;2023-07-28T01:31:02;23.48;;;16.08;;
54428;SDS011;40337;52.978;6.310;2023-07-28T01:33:30;25.20;;;16.17;;
54428;SDS011;40337;52.978;6.310;2023-07-28T01:35:55;29.35;;;16.83;;
54428;SDS011;40337;52.978;6.310;2023-07-28T01:38:21;29.33;;;16.65;;
54428;SDS011;40337;52.978;6.310;2023-07-28T01:40:47;29.10;;;16.63;;
54428;SDS011;40337;52.978;6.310;2023-07-28T01:43:12;21.27;;;14.95;;
54428;SDS011;40337;52.978;6.310;2023-07-28T01:45:38;26.48;;;15.88;;
54428;SDS011;40337;52.978;6.310;2023-07-28T01:48:04;23.45;;;15.30;;
54428;SDS011;40337;52.978;6.310;2023-07-28T01:50:30;25.15;;;15.30;;
54428;SDS011;40337;52.978;6.310;2023-07-28T01:52:56;26.10;;;15.30;;
54428;SDS011;40337;52.978;6.310;2023-07-28T01:55:21;24.27;;;15.13;;
54428;SDS011;40337;52.978;6.310;2023-07-28T01:57:55;25.27;;;15.02;;
54428;SDS011;40337;52.978;6.310;2023-07-28T02:00:22;24.08;;;15.02;;
54428;SDS011;40337;52.978;6.310;2023-07-28T02:02:48;21.73;;;15.10;;
54428;SDS011;40337;52.978;6.310;2023-07-28T02:05:14;26.90;;;15.20;;
54428;SDS011;40337;52.978;6.310;2023-07-28T02:07:39;22.60;;;14.90;;
54428;SDS011;40337;52.978;6.310;2023-07-28T02:10:05;26.25;;;14.50;;
54428;SDS011;40337;52.978;6.310;2023-07-28T02:12:31;24.42;;;14.57;;
54428;SDS011;40337;52.978;6.310;2023-07-28T02:14:57;23.77;;;13.80;;
54428;SDS011;40337;52.978;6.310;2023-07-28T02:17:22;26.42;;;13.98;;
54428;SDS011;40337;52.978;6.310;2023-07-28T02:19:48;26.33;;;14.02;;
54428;SDS011;40337;52.978;6.310;2023-07-28T02:22:13;23.92;;;13.60;;
54428;SDS011;40337;52.978;6.310;2023-07-28T02:24:39;21.88;;;12.75;;
54428;SDS011;40337;52.978;6.310;2023-07-28T02:27:04;22.17;;;13.40;;
54428;SDS011;40337;52.978;6.310;2023-07-28T02:29:30;20.10;;;12.65;;
54428;SDS011;40337;52.978;6.310;2023-07-28T02:31:56;21.30;;;12.88;;
54428;SDS011;40337;52.978;6.310;2023-07-28T02:34:21;23.23;;;12.40;;
54428;SDS011;40337;52.978;6.310;2023-07-28T02:36:47;19.88;;;13.02;;
54428;SDS011;40337;52.978;6.310;2023-07-28T02:39:12;20.85;;;11.40;;
54428;SDS011;40337;52.978;6.310;2023-07-28T02:41:38;17.23;;;11.73;;
54428;SDS011;40337;52.978;6.310;2023-07-28T02:44:04;20.27;;;11.60;;
54428;SDS011;40337;52.978;6.310;2023-07-28T02:46:29;21.17;;;12.35;;
54428;SDS011;40337;52.978;6.310;2023-07-28T02:48:55;23.17;;;12.75;;
54428;SDS011;40337;52.978;6.310;2023-07-28T02:51:21;22.70;;;10.90;;
54428;SDS011;40337;52.978;6.310;2023-07-28T02:53:46;15.48;;;10.40;;
54428;SDS011;40337;52.978;6.310;2023-07-28T02:56:12;21.92;;;11.60;;
54428;SDS011;40337;52.978;6.310;2023-07-28T02:58:37;15.32;;;10.60;;
54428;SDS011;40337;52.978;6.310;2023-07-28T03:01:03;19.75;;;11.27;;
54428;SDS011;40337;52.978;6.310;2023-07-28T03:03:29;21.27;;;11.20;;
54428;SDS011;40337;52.978;6.310;2023-07-28T03:05:54;21.23;;;10.85;;
54428;SDS011;40337;52.978;6.310;2023-07-28T03:08:20;20.08;;;11.13;;
54428;SDS011;40337;52.978;6.310;2023-07-28T03:10:45;17.95;;;11.00;;
54428;SDS011;40337;52.978;6.310;2023-07-28T03:13:11;24.02;;;11.13;;
54428;SDS011;40337;52.978;6.310;2023-07-28T03:15:36;22.67;;;11.38;;
54428;SDS011;40337;52.978;6.310;2023-07-28T03:18:02;18.30;;;10.50;;
54428;SDS011;40337;52.978;6.310;2023-07-28T03:20:28;21.17;;;11.82;;
54428;SDS011;40337;52.978;6.310;2023-07-28T03:22:53;19.23;;;11.63;;
54428;SDS011;40337;52.978;6.310;2023-07-28T03:25:20;19.35;;;11.85;;
54428;SDS011;40337;52.978;6.310;2023-07-28T03:27:45;23.63;;;12.25;;
54428;SDS011;40337;52.978;6.310;2023-07-28T03:30:11;22.38;;;12.05;;
54428;SDS011;40337;52.978;6.310;2023-07-28T03:32:36;20.23;;;12.68;;
54428;SDS011;40337;52.978;6.310;2023-07-28T03:35:02;22.83;;;12.38;;
54428;SDS011;40337;52.978;6.310;2023-07-28T03:37:30;21.42;;;12.60;;
54428;SDS011;40337;52.978;6.310;2023-07-28T03:39:59;21.10;;;12.77;;
54428;SDS011;40337;52.978;6.310;2023-07-28T03:42:24;21.80;;;12.00;;
54428;SDS011;40337;52.978;6.310;2023-07-28T03:44:50;19.02;;;12.02;;
54428;SDS011;40337;52.978;6.310;2023-07-28T03:47:16;20.42;;;12.27;;
54428;SDS011;40337;52.978;6.310;2023-07-28T03:49:41;20.75;;;11.77;;
54428;SDS011;40337;52.978;6.310;2023-07-28T03:52:07;18.98;;;12.27;;
54428;SDS011;40337;52.978;6.310;2023-07-28T03:54:32;19.05;;;12.35;;
54428;SDS011;40337;52.978;6.310;2023-07-28T03:56:58;20.88;;;12.02;;
54428;SDS011;40337;52.978;6.310;2023-07-28T03:59:23;20.35;;;12.00;;
54428;SDS011;40337;52.978;6.310;2023-07-28T04:01:49;21.20;;;12.05;;
54428;SDS011;40337;52.978;6.310;2023-07-28T04:04:15;18.98;;;12.45;;
54428;SDS011;40337;52.978;6.310;2023-07-28T04:09:10;21.90;;;11.95;;
54428;SDS011;40337;52.978;6.310;2023-07-28T04:11:40;19.20;;;11.75;;
54428;SDS011;40337;52.978;6.310;2023-07-28T04:14:06;15.82;;;11.23;;
54428;SDS011;40337;52.978;6.310;2023-07-28T04:16:31;18.13;;;12.25;;
54428;SDS011;40337;52.978;6.310;2023-07-28T04:18:57;21.33;;;12.93;;
54428;SDS011;40337;52.978;6.310;2023-07-28T04:21:23;19.30;;;11.80;;
54428;SDS011;40337;52.978;6.310;2023-07-28T04:23:49;22.45;;;12.95;;
54428;SDS011;40337;52.978;6.310;2023-07-28T04:26:15;18.40;;;11.93;;
54428;SDS011;40337;52.978;6.310;2023-07-28T04:28:41;19.00;;;12.60;;
54428;SDS011;40337;52.978;6.310;2023-07-28T04:31:07;22.73;;;12.85;;
54428;SDS011;40337;52.978;6.310;2023-07-28T04:33:32;23.30;;;12.25;;
54428;SDS011;40337;52.978;6.310;2023-07-28T04:35:59;19.00;;;12.88;;
54428;SDS011;40337;52.978;6.310;2023-07-28T04:38:25;20.55;;;12.00;;
54428;SDS011;40337;52.978;6.310;2023-07-28T04:40:51;19.67;;;12.35;;
54428;SDS011;40337;52.978;6.310;2023-07-28T04:43:17;22.83;;;12.98;;
54428;SDS011;40337;52.978;6.310;2023-07-28T04:45:44;22.00;;;12.38;;
54428;SDS011;40337;52.978;6.310;2023-07-28T04:48:10;22.83;;;12.13;;
54428;SDS011;40337;52.978;6.310;2023-07-28T04:50:35;16.92;;;10.98;;
54428;SDS011;40337;52.978;6.310;2023-07-28T04:53:01;21.60;;;11.95;;
54428;SDS011;40337;52.978;6.310;2023-07-28T04:55:27;15.13;;;10.70;;
54428;SDS011;40337;52.978;6.310;2023-07-28T04:57:53;18.35;;;10.85;;
54428;SDS011;40337;52.978;6.310;2023-07-28T05:00:18;19.17;;;10.32;;
54428;SDS011;40337;52.978;6.310;2023-07-28T05:02:44;16.52;;;10.25;;
54428;SDS011;40337;52.978;6.310;2023-07-28T05:05:10;14.30;;;9.63;;
54428;SDS011;40337;52.978;6.310;2023-07-28T05:07:35;19.17;;;10.40;;
54428;SDS011;40337;52.978;6.310;2023-07-28T05:10:01;17.70;;;10.15;;
54428;SDS011;40337;52.978;6.310;2023-07-28T05:12:27;18.73;;;10.95;;
54428;SDS011;40337;52.978;6.310;2023-07-28T05:14:55;15.27;;;9.73;;
54428;SDS011;40337;52.978;6.310;2023-07-28T05:17:21;20.20;;;10.85;;
54428;SDS011;40337;52.978;6.310;2023-07-28T05:19:46;17.80;;;9.85;;
54428;SDS011;40337;52.978;6.310;2023-07-28T05:22:12;17.48;;;10.00;;
54428;SDS011;40337;52.978;6.310;2023-07-28T05:24:37;18.58;;;9.73;;
54428;SDS011;40337;52.978;6.310;2023-07-28T05:27:03;17.83;;;10.20;;
54428;SDS011;40337;52.978;6.310;2023-07-28T05:29:28;15.93;;;9.27;;
54428;SDS011;40337;52.978;6.310;2023-07-28T05:31:54;15.85;;;9.10;;
54428;SDS011;40337;52.978;6.310;2023-07-28T05:34:20;17.88;;;9.52;;
54428;SDS011;40337;52.978;6.310;2023-07-28T05:36:45;16.23;;;9.68;;
54428;SDS011;40337;52.978;6.310;2023-07-28T05:39:11;15.52;;;9.55;;
54428;SDS011;40337;52.978;6.310;2023-07-28T05:41:37;16.40;;;9.13;;
54428;SDS011;40337;52.978;6.310;2023-07-28T05:44:02;15.75;;;9.45;;
54428;SDS011;40337;52.978;6.310;2023-07-28T05:46:28;14.52;;;9.30;;
54428;SDS011;40337;52.978;6.310;2023-07-28T05:48:54;17.02;;;9.30;;
54428;SDS011;40337;52.978;6.310;2023-07-28T05:51:21;13.75;;;8.80;;
54428;SDS011;40337;52.978;6.310;2023-07-28T05:53:47;15.23;;;8.63;;
54428;SDS011;40337;52.978;6.310;2023-07-28T05:56:14;16.13;;;8.55;;
54428;SDS011;40337;52.978;6.310;2023-07-28T05:58:39;18.58;;;10.00;;
54428;SDS011;40337;52.978;6.310;2023-07-28T06:01:05;17.77;;;9.18;;
54428;SDS011;40337;52.978;6.310;2023-07-28T06:03:30;14.65;;;9.32;;
54428;SDS011;40337;52.978;6.310;2023-07-28T06:05:56;15.65;;;8.52;;
54428;SDS011;40337;52.978;6.310;2023-07-28T06:08:22;14.55;;;8.40;;
54428;SDS011;40337;52.978;6.310;2023-07-28T06:10:47;15.75;;;8.88;;
54428;SDS011;40337;52.978;6.310;2023-07-28T06:13:13;13.55;;;8.25;;
54428;SDS011;40337;52.978;6.310;2023-07-28T06:15:39;14.70;;;8.50;;
54428;SDS011;40337;52.978;6.310;2023-07-28T06:18:05;9.73;;;7.00;;
54428;SDS011;40337;52.978;6.310;2023-07-28T06:20:31;11.75;;;6.22;;
54428;SDS011;40337;52.978;6.310;2023-07-28T06:22:56;9.50;;;6.20;;
54428;SDS011;40337;52.978;6.310;2023-07-28T06:25:22;9.27;;;5.82;;
54428;SDS011;40337;52.978;6.310;2023-07-28T06:27:47;12.23;;;6.22;;
54428;SDS011;40337;52.978;6.310;2023-07-28T06:30:13;11.55;;;6.75;;
54428;SDS011;40337;52.978;6.310;2023-07-28T06:32:39;8.88;;;6.13;;
54428;SDS011;40337;52.978;6.310;2023-07-28T06:35:04;10.73;;;7.07;;
54428;SDS011;40337;52.978;6.310;2023-07-28T06:37:32;10.73;;;6.75;;
54428;SDS011;40337;52.978;6.310;2023-07-28T06:39:58;11.80;;;6.60;;
54428;SDS011;40337;52.978;6.310;2023-07-28T06:42:24;12.50;;;7.43;;
54428;SDS011;40337;52.978;6.310;2023-07-28T06:44:53;10.38;;;7.20;;
54428;SDS011;40337;52.978;6.310;2023-07-28T06:47:18;10.13;;;6.60;;
54428;SDS011;40337;52.978;6.310;2023-07-28T06:49:44;11.45;;;6.35;;
54428;SDS011;40337;52.978;6.310;2023-07-28T06:52:10;10.48;;;6.70;;
54428;SDS011;40337;52.978;6.310;2023-07-28T06:54:36;10.75;;;6.93;;
54428;SDS011;40337;52.978;6.310;2023-07-28T06:57:01;11.13;;;7.20;;
54428;SDS011;40337;52.978;6.310;2023-07-28T06:59:27;10.65;;;7.53;;
54428;SDS011;40337;52.978;6.310;2023-07-28T07:01:53;10.18;;;6.97;;
54428;SDS011;40337;52.978;6.310;2023-07-28T07:04:18;11.48;;;7.78;;
54428;SDS011;40337;52.978;6.310;2023-07-28T07:06:44;11.88;;;7.40;;
54428;SDS011;40337;52.978;6.310;2023-07-28T07:09:10;11.30;;;7.25;;
54428;SDS011;40337;52.978;6.310;2023-07-28T07:11:39;10.40;;;6.95;;
54428;SDS011;40337;52.978;6.310;2023-07-28T07:14:05;9.60;;;6.70;;
54428;SDS011;40337;52.978;6.310;2023-07-28T07:16:31;9.82;;;7.00;;
54428;SDS011;40337;52.978;6.310;2023-07-28T07:18:57;10.82;;;7.50;;
54428;SDS011;40337;52.978;6.310;2023-07-28T07:21:23;10.48;;;7.00;;
54428;SDS011;40337;52.978;6.310;2023-07-28T07:23:48;9.13;;;6.55;;
54428;SDS011;40337;52.978;6.310;2023-07-28T07:26:14;8.18;;;6.07;;
54428;SDS011;40337;52.978;6.310;2023-07-28T07:28:39;10.15;;;5.78;;
54428;SDS011;40337;52.978;6.310;2023-07-28T07:31:11;9.57;;;5.78;;
54428;SDS011;40337;52.978;6.310;2023-07-28T07:33:40;8.10;;;5.40;;
54428;SDS011;40337;52.978;6.310;2023-07-28T07:36:11;10.90;;;5.78;;
54428;SDS011;40337;52.978;6.310;2023-07-28T07:38:40;7.00;;;5.38;;
54428;SDS011;40337;52.978;6.310;2023-07-28T07:41:07;10.32;;;5.57;;
54428;SDS011;40337;52.978;6.310;2023-07-28T07:43:33;7.10;;;5.13;;
54428;SDS011;40337;52.978;6.310;2023-07-28T07:45:59;9.13;;;5.30;;
54428;SDS011;40337;52.978;6.310;2023-07-28T07:48:25;9.30;;;5.82;;
54428;SDS011;40337;52.978;6.310;2023-07-28T07:50:51;8.27;;;5.75;;
54428;SDS011;40337;52.978;6.310;2023-07-28T07:53:16;6.47;;;5.38;;
54428;SDS011;40337;52.978;6.310;2023-07-28T07:55:42;9.23;;;6.32;;
54428;SDS011;40337;52.978;6.310;2023-07-28T07:58:08;10.23;;;6.00;;
54428;SDS011;40337;52.978;6.310;2023-07-28T08:00:33;7.32;;;5.13;;
54428;SDS011;40337;52.978;6.310;2023-07-28T08:02:59;8.20;;;5.30;;
54428;SDS011;40337;52.978;6.310;2023-07-28T08:05:24;8.40;;;5.38;;
54428;SDS011;40337;52.978;6.310;2023-07-28T08:07:50;8.38;;;5.22;;
54428;SDS011;40337;52.978;6.310;2023-07-28T08:10:16;8.65;;;5.57;;
54428;SDS011;40337;52.978;6.310;2023-07-28T08:12:42;9.05;;;4.75;;
54428;SDS011;40337;52.978;6.310;2023-07-28T08:15:09;10.20;;;4.78;;
54428;SDS011;40337;52.978;6.310;2023-07-28T08:17:35;9.73;;;5.20;;
54428;SDS011;40337;52.978;6.310;2023-07-28T08:20:01;7.63;;;4.80;;
54428;SDS011;40337;52.978;6.310;2023-07-28T08:22:26;7.18;;;4.28;;
54428;SDS011;40337;52.978;6.310;2023-07-28T08:24:52;6.78;;;4.38;;
54428;SDS011;40337;52.978;6.310;2023-07-28T08:27:17;6.10;;;4.30;;
54428;SDS011;40337;52.978;6.310;2023-07-28T08:29:43;7.28;;;4.70;;
54428;SDS011;40337;52.978;6.310;2023-07-28T08:32:09;6.32;;;3.63;;
54428;SDS011;40337;52.978;6.310;2023-07-28T08:34:34;7.72;;;4.40;;
54428;SDS011;40337;52.978;6.310;2023-07-28T08:37:00;6.55;;;3.30;;
54428;SDS011;40337;52.978;6.310;2023-07-28T08:39:25;8.00;;;4.00;;
54428;SDS011;40337;52.978;6.310;2023-07-28T08:42:00;7.65;;;4.05;;
54428;SDS011;40337;52.978;6.310;2023-07-28T08:44:29;6.70;;;4.25;;
54428;SDS011;40337;52.978;6.310;2023-07-28T08:46:57;7.70;;;5.13;;
54428;SDS011;40337;52.978;6.310;2023-07-28T08:49:22;7.13;;;5.10;;
54428;SDS011;40337;52.978;6.310;2023-07-28T08:51:48;4.90;;;4.13;;
54428;SDS011;40337;52.978;6.310;2023-07-28T08:54:15;6.38;;;4.85;;
54428;SDS011;40337;52.978;6.310;2023-07-28T08:56:42;7.15;;;3.97;;
54428;SDS011;40337;52.978;6.310;2023-07-28T08:59:08;8.48;;;4.03;;
54428;SDS011;40337;52.978;6.310;2023-07-28T09:01:38;6.72;;;4.68;;
54428;SDS011;40337;52.978;6.310;2023-07-28T09:04:11;8.50;;;5.28;;
54428;SDS011;40337;52.978;6.310;2023-07-28T09:06:37;7.53;;;5.03;;
54428;SDS011;40337;52.978;6.310;2023-07-28T09:09:06;7.40;;;4.63;;
54428;SDS011;40337;52.978;6.310;2023-07-28T09:11:32;6.90;;;4.47;;
54428;SDS011;40337;52.978;6.310;2023-07-28T09:14:00;9.00;;;4.90;;
54428;SDS011;40337;52.978;6.310;2023-07-28T09:16:26;7.22;;;4.53;;
54428;SDS011;40337;52.978;6.310;2023-07-28T09:19:04;6.95;;;4.50;;
54428;SDS011;40337;52.978;6.310;2023-07-28T09:21:31;5.75;;;3.95;;
54428;SDS011;40337;52.978;6.310;2023-07-28T09:23:59;6.18;;;4.00;;
54428;SDS011;40337;52.978;6.310;2023-07-28T09:29:19;8.07;;;4.68;;
54428;SDS011;40337;52.978;6.310;2023-07-28T09:31:46;8.68;;;5.63;;
54428;SDS011;40337;52.978;6.310;2023-07-28T09:34:13;7.18;;;5.82;;
54428;SDS011;40337;52.978;6.310;2023-07-28T09:36:58;7.60;;;5.32;;
54428;SDS011;40337;52.978;6.310;2023-07-28T09:39:25;6.10;;;4.40;;
54428;SDS011;40337;52.978;6.310;2023-07-28T09:41:51;6.82;;;4.82;;
54428;SDS011;40337;52.978;6.310;2023-07-28T09:44:17;7.30;;;4.60;;
54428;SDS011;40337;52.978;6.310;2023-07-28T09:46:52;6.35;;;5.10;;
54428;SDS011;40337;52.978;6.310;2023-07-28T09:49:21;7.22;;;4.60;;
54428;SDS011;40337;52.978;6.310;2023-07-28T09:51:53;6.15;;;4.40;;
54428;SDS011;40337;52.978;6.310;2023-07-28T09:54:25;6.93;;;4.55;;
54428;SDS011;40337;52.978;6.310;2023-07-28T09:56:58;6.70;;;4.45;;
54428;SDS011;40337;52.978;6.310;2023-07-28T09:59:32;7.50;;;4.80;;
54428;SDS011;40337;52.978;6.310;2023-07-28T10:02:00;5.15;;;4.50;;
54428;SDS011;40337;52.978;6.310;2023-07-28T10:04:27;6.05;;;4.53;;
54428;SDS011;40337;52.978;6.310;2023-07-28T10:06:54;5.07;;;4.10;;
54428;SDS011;40337;52.978;6.310;2023-07-28T10:09:22;8.25;;;4.53;;
54428;SDS011;40337;52.978;6.310;2023-07-28T10:11:50;6.30;;;5.15;;
54428;SDS011;40337;52.978;6.310;2023-07-28T10:14:28;6.93;;;4.53;;
54428;SDS011;40337;52.978;6.310;2023-07-28T10:16:57;5.57;;;3.65;;
54428;SDS011;40337;52.978;6.310;2023-07-28T10:19:26;6.18;;;4.07;;
54428;SDS011;40337;52.978;6.310;2023-07-28T10:22:02;6.53;;;4.10;;
54428;SDS011;40337;52.978;6.310;2023-07-28T10:24:54;5.70;;;3.58;;
54428;SDS011;40337;52.978;6.310;2023-07-28T10:28:04;5.15;;;3.70;;
54428;SDS011;40337;52.978;6.310;2023-07-28T10:30:12;4.80;;;3.50;;
54428;SDS011;40337;52.978;6.310;2023-07-28T10:32:39;5.57;;;3.60;;
54428;SDS011;40337;52.978;6.310;2023-07-28T10:37:38;6.65;;;4.03;;
54428;SDS011;40337;52.978;6.310;2023-07-28T10:42:51;5.78;;;3.50;;
54428;SDS011;40337;52.978;6.310;2023-07-28T10:45:17;5.47;;;3.50;;
54428;SDS011;40337;52.978;6.310;2023-07-28T10:47:43;6.90;;;3.60;;
54428;SDS011;40337;52.978;6.310;2023-07-28T10:50:10;6.80;;;4.43;;
54428;SDS011;40337;52.978;6.310;2023-07-28T10:52:39;6.35;;;3.83;;
54428;SDS011;40337;52.978;6.310;2023-07-28T10:55:19;5.80;;;3.33;;
54428;SDS011;40337;52.978;6.310;2023-07-28T10:57:46;5.90;;;3.38;;
54428;SDS011;40337;52.978;6.310;2023-07-28T11:00:12;5.97;;;3.67;;
54428;SDS011;40337;52.978;6.310;2023-07-28T11:02:44;6.90;;;3.60;;
54428;SDS011;40337;52.978;6.310;2023-07-28T11:05:11;6.18;;;3.63;;
54428;SDS011;40337;52.978;6.310;2023-07-28T11:07:51;5.53;;;3.90;;
54428;SDS011;40337;52.978;6.310;2023-07-28T11:10:22;5.63;;;3.15;;
54428;SDS011;40337;52.978;6.310;2023-07-28T11:12:49;6.55;;;3.60;;
54428;SDS011;40337;52.978;6.310;2023-07-28T11:15:16;6.00;;;3.70;;
54428;SDS011;40337;52.978;6.310;2023-07-28T11:17:44;5.22;;;3.65;;
54428;SDS011;40337;52.978;6.310;2023-07-28T11:20:21;6.38;;;3.80;;
54428;SDS011;40337;52.978;6.310;2023-07-28T11:22:58;5.55;;;3.97;;
54428;SDS011;40337;52.978;6.310;2023-07-28T11:25:26;6.25;;;4.22;;
54428;SDS011;40337;52.978;6.310;2023-07-28T11:27:53;7.65;;;4.28;;
54428;SDS011;40337;52.978;6.310;2023-07-28T11:30:19;7.65;;;5.10;;
54428;SDS011;40337;52.978;6.310;2023-07-28T11:32:49;8.30;;;5.70;;
54428;SDS011;40337;52.978;6.310;2023-07-28T11:35:16;7.28;;;5.68;;
54428;SDS011;40337;52.978;6.310;2023-07-28T11:37:43;7.43;;;5.75;;
54428;SDS011;40337;52.978;6.310;2023-07-28T11:40:13;8.57;;;5.32;;
54428;SDS011;40337;52.978;6.310;2023-07-28T11:42:47;8.10;;;5.75;;
54428;SDS011;40337;52.978;6.310;2023-07-28T11:45:15;7.85;;;5.78;;
54428;SDS011;40337;52.978;6.310;2023-07-28T11:47:56;7.68;;;5.78;;
54428;SDS011;40337;52.978;6.310;2023-07-28T11:50:30;6.95;;;4.97;;
54428;SDS011;40337;52.978;6.310;2023-07-28T11:52:59;7.20;;;5.43;;
54428;SDS011;40337;52.978;6.310;2023-07-28T11:55:25;5.55;;;4.90;;
54428;SDS011;40337;52.978;6.310;2023-07-28T11:57:51;7.55;;;5.22;;
54428;SDS011;40337;52.978;6.310;2023-07-28T12:00:18;7.47;;;4.72;;
54428;SDS011;40337;52.978;6.310;2023-07-28T12:02:51;7.38;;;4.80;;
54428;SDS011;40337;52.978;6.310;2023-07-28T12:05:26;8.65;;;5.45;;
54428;SDS011;40337;52.978;6.310;2023-07-28T12:07:53;7.50;;;4.53;;
54428;SDS011;40337;52.978;6.310;2023-07-28T12:10:18;7.03;;;5.32;;
54428;SDS011;40337;52.978;6.310;2023-07-28T12:12:45;6.57;;;5.07;;
54428;SDS011;40337;52.978;6.310;2023-07-28T12:15:18;7.32;;;5.10;;
54428;SDS011;40337;52.978;6.310;2023-07-28T12:18:01;7.97;;;7.13;;
54428;SDS011;40337;52.978;6.310;2023-07-28T12:20:32;9.63;;;6.88;;
54428;SDS011;40337;52.978;6.310;2023-07-28T12:22:59;8.35;;;7.07;;
54428;SDS011;40337;52.978;6.310;2023-07-28T12:25:24;8.52;;;6.47;;
54428;SDS011;40337;52.978;6.310;2023-07-28T12:27:50;7.03;;;4.97;;
54428;SDS011;40337;52.978;6.310;2023-07-28T12:30:15;7.65;;;5.30;;
54428;SDS011;40337;52.978;6.310;2023-07-28T12:32:41;6.90;;;4.55;;
54428;SDS011;40337;52.978;6.310;2023-07-28T12:35:06;6.22;;;4.57;;
54428;SDS011;40337;52.978;6.310;2023-07-28T12:37:33;6.07;;;4.70;;
54428;SDS011;40337;52.978;6.310;2023-07-28T12:39:59;6.95;;;4.75;;
54428;SDS011;40337;52.978;6.310;2023-07-28T12:42:26;6.30;;;5.03;;
54428;SDS011;40337;52.978;6.310;2023-07-28T12:44:51;5.97;;;4.35;;
54428;SDS011;40337;52.978;6.310;2023-07-28T12:47:17;5.35;;;4.30;;
54428;SDS011;40337;52.978;6.310;2023-07-28T12:49:43;5.82;;;4.40;;
54428;SDS011;40337;52.978;6.310;2023-07-28T12:52:08;7.13;;;5.40;;
54428;SDS011;40337;52.978;6.310;2023-07-28T12:54:36;6.95;;;4.97;;
54428;SDS011;40337;52.978;6.310;2023-07-28T12:57:03;5.85;;;4.22;;
54428;SDS011;40337;52.978;6.310;2023-07-28T12:59:29;7.68;;;4.55;;
54428;SDS011;40337;52.978;6.310;2023-07-28T13:01:54;6.55;;;4.10;;
54428;SDS011;40337;52.978;6.310;2023-07-28T13:04:20;5.60;;;3.85;;
54428;SDS011;40337;52.978;6.310;2023-07-28T13:06:46;8.02;;;5.07;;
54428;SDS011;40337;52.978;6.310;2023-07-28T13:09:11;5.65;;;4.10;;
54428;SDS011;40337;52.978;6.310;2023-07-28T13:11:37;5.88;;;4.00;;
54428;SDS011;40337;52.978;6.310;2023-07-28T13:14:03;4.20;;;3.30;;
54428;SDS011;40337;52.978;6.310;2023-07-28T13:16:28;5.15;;;4.15;;
54428;SDS011;40337;52.978;6.310;2023-07-28T13:18:54;6.32;;;4.22;;
54428;SDS011;40337;52.978;6.310;2023-07-28T13:21:20;6.43;;;4.72;;
54428;SDS011;40337;52.978;6.310;2023-07-28T13:23:46;6.90;;;4.88;;
54428;SDS011;40337;52.978;6.310;2023-07-28T13:26:11;7.05;;;4.80;;
54428;SDS011;40337;52.978;6.310;2023-07-28T13:28:37;8.18;;;5.93;;
54428;SDS011;40337;52.978;6.310;2023-07-28T13:31:04;8.35;;;6.32;;
54428;SDS011;40337;52.978;6.310;2023-07-28T13:33:30;7.50;;;6.70;;
54428;SDS011;40337;52.978;6.310;2023-07-28T13:35:56;9.23;;;6.28;;
54428;SDS011;40337;52.978;6.310;2023-07-28T13:38:21;7.35;;;5.88;;
54428;SDS011;40337;52.978;6.310;2023-07-28T13:40:47;7.13;;;5.32;;
54428;SDS011;40337;52.978;6.310;2023-07-28T13:43:13;6.47;;;5.68;;
54428;SDS011;40337;52.978;6.310;2023-07-28T13:45:38;6.05;;;5.00;;
54428;SDS011;40337;52.978;6.310;2023-07-28T13:48:04;8.07;;;4.93;;
54428;SDS011;40337;52.978;6.310;2023-07-28T13:50:29;9.10;;;5.82;;
54428;SDS011;40337;52.978;6.310;2023-07-28T13:52:55;6.53;;;5.90;;
54428;SDS011;40337;52.978;6.310;2023-07-28T13:55:21;6.75;;;5.82;;
54428;SDS011;40337;52.978;6.310;2023-07-28T13:57:47;8.02;;;5.97;;
54428;SDS011;40337;52.978;6.310;2023-07-28T14:00:12;6.57;;;5.60;;
54428;SDS011;40337;52.978;6.310;2023-07-28T14:02:38;7.00;;;6.05;;
54428;SDS011;40337;52.978;6.310;2023-07-28T14:05:05;6.40;;;5.30;;
54428;SDS011;40337;52.978;6.310;2023-07-28T14:07:32;8.35;;;4.55;;
54428;SDS011;40337;52.978;6.310;2023-07-28T14:09:58;7.00;;;4.80;;
54428;SDS011;40337;52.978;6.310;2023-07-28T14:12:24;9.05;;;5.53;;
54428;SDS011;40337;52.978;6.310;2023-07-28T14:14:50;7.10;;;6.10;;
54428;SDS011;40337;52.978;6.310;2023-07-28T14:17:15;8.45;;;6.47;;
54428;SDS011;40337;52.978;6.310;2023-07-28T14:19:41;8.45;;;5.40;;
54428;SDS011;40337;52.978;6.310;2023-07-28T14:22:07;4.82;;;3.85;;
54428;SDS011;40337;52.978;6.310;2023-07-28T14:24:33;6.18;;;5.18;;
54428;SDS011;40337;52.978;6.310;2023-07-28T14:26:59;6.90;;;6.10;;
54428;SDS011;40337;52.978;6.310;2023-07-28T14:29:24;7.45;;;6.05;;
54428;SDS011;40337;52.978;6.310;2023-07-28T14:31:51;7.80;;;6.70;;
54428;SDS011;40337;52.978;6.310;2023-07-28T14:34:17;9.65;;;7.80;;
54428;SDS011;40337;52.978;6.310;2023-07-28T14:36:42;9.60;;;8.20;;
54428;SDS011;40337;52.978;6.310;2023-07-28T14:39:08;9.40;;;7.70;;
54428;SDS011;40337;52.978;6.310;2023-07-28T14:41:34;9.20;;;7.45;;
54428;SDS011;40337;52.978;6.310;2023-07-28T14:44:00;8.23;;;7.20;;
54428;SDS011;40337;52.978;6.310;2023-07-28T14:46:26;7.90;;;6.05;;